createdAt,value
2022-10-04T00:02:16.755Z,10.10
2022-10-04T00:05:04.242Z,11.45
2022-10-04T00:07:54.436Z,10.95
2022-10-04T00:10:31.497Z,11.75
2022-10-04T00:13:02.684Z,11.80
2022-10-04T00:15:32.022Z,13.32
2022-10-04T00:18:11.186Z,9.65
2022-10-04T00:20:53.651Z,10.75
2022-10-04T00:23:23.680Z,10.88
2022-10-04T00:26:02.139Z,10.00
2022-10-04T00:28:39.958Z,11.05
2022-10-04T00:31:24.645Z,12.77
2022-10-04T00:33:55.255Z,11.05
2022-10-04T00:36:25.535Z,12.27
2022-10-04T00:39:05.144Z,11.00
2022-10-04T00:41:47.783Z,9.30
2022-10-04T00:45:02.679Z,14.27
2022-10-04T00:48:02.913Z,11.57
2022-10-04T00:50:41.694Z,11.38
2022-10-04T00:53:22.360Z,11.65
2022-10-04T00:56:03.543Z,10.30
2022-10-04T00:58:58.678Z,10.35
2022-10-04T01:01:29.213Z,12.90
2022-10-04T01:04:00.390Z,10.43
2022-10-04T01:06:28.917Z,11.50
2022-10-04T01:09:03.995Z,11.93
2022-10-04T01:11:38.534Z,10.88
2022-10-04T01:14:29.085Z,8.98
2022-10-04T01:16:57.035Z,10.77
2022-10-04T01:19:28.632Z,10.80
2022-10-04T01:22:10.465Z,10.02
2022-10-04T01:24:43.064Z,9.45
2022-10-04T01:27:37.608Z,11.77
2022-10-04T01:30:09.519Z,10.02
2022-10-04T01:32:39.021Z,8.07
2022-10-04T01:35:13.237Z,10.07
2022-10-04T01:37:41.071Z,8.55
2022-10-04T01:40:10.852Z,11.00
2022-10-04T01:42:44.653Z,10.05
2022-10-04T01:45:30.033Z,8.52
2022-10-04T01:48:01.125Z,9.25
2022-10-04T01:50:57.289Z,10.70
2022-10-04T01:53:29.225Z,10.23
2022-10-04T01:56:14.977Z,9.57
2022-10-04T01:58:49.428Z,10.48
2022-10-04T02:01:57.875Z,10.70
2022-10-04T02:04:30.596Z,9.82
2022-10-04T02:07:00.696Z,12.77
2022-10-04T02:09:38.621Z,10.10
2022-10-04T02:12:06.989Z,10.27
2022-10-04T02:14:37.052Z,11.70
2022-10-04T02:17:10.414Z,9.43
2022-10-04T02:19:44.640Z,10.10
2022-10-04T02:22:12.270Z,11.35
2022-10-04T02:24:43.777Z,11.65
2022-10-04T02:27:11.854Z,13.38
2022-10-04T02:29:39.471Z,12.88
2022-10-04T02:32:27.757Z,10.13
2022-10-04T02:34:57.123Z,11.25
2022-10-04T02:37:27.281Z,9.40
2022-10-04T02:40:10.662Z,12.10
2022-10-04T02:42:44.729Z,9.07
2022-10-04T02:45:42.093Z,10.00
2022-10-04T02:48:39.695Z,13.00
2022-10-04T02:51:25.705Z,12.63
2022-10-04T02:54:00.970Z,11.45
2022-10-04T02:56:32.181Z,15.75
2022-10-04T02:59:04.592Z,12.82
2022-10-04T03:02:01.764Z,15.27
2022-10-04T03:04:33.509Z,13.57
2022-10-04T03:07:04.970Z,12.93
2022-10-04T03:09:33.114Z,16.45
2022-10-04T03:12:00.655Z,12.75
2022-10-04T03:14:29.168Z,14.95
2022-10-04T03:17:00.769Z,15.65
2022-10-04T03:19:29.934Z,16.70
2022-10-04T03:22:02.260Z,12.82
2022-10-04T03:24:37.116Z,14.98
2022-10-04T03:27:08.202Z,16.33
2022-10-04T03:29:39.803Z,13.32
2022-10-04T03:32:07.856Z,15.23
2022-10-04T03:34:38.635Z,14.95
2022-10-04T03:37:09.750Z,13.60
2022-10-04T03:39:48.845Z,13.68
2022-10-04T03:42:30.467Z,12.40
2022-10-04T03:45:02.863Z,13.57
2022-10-04T03:47:37.324Z,11.47
2022-10-04T03:50:34.453Z,16.73
2022-10-04T03:53:07.951Z,13.90
2022-10-04T03:55:40.047Z,13.93
2022-10-04T03:58:09.600Z,17.17
2022-10-04T04:00:43.330Z,14.00
2022-10-04T04:03:20.022Z,12.25
2022-10-04T04:05:54.344Z,14.27
2022-10-04T04:08:33.349Z,14.63
2022-10-04T04:11:04.156Z,14.02
2022-10-04T04:13:54.913Z,13.00
2022-10-04T04:16:26.382Z,12.30
2022-10-04T04:18:55.603Z,12.90
2022-10-04T04:21:25.346Z,13.82
2022-10-04T04:24:05.473Z,15.20
2022-10-04T04:26:47.504Z,15.57
2022-10-04T04:29:53.775Z,18.38
2022-10-04T04:32:32.061Z,17.77
2022-10-04T04:35:06.968Z,17.35
2022-10-04T04:37:38.467Z,17.40
2022-10-04T04:40:21.297Z,15.02
2022-10-04T04:42:49.983Z,19.00
2022-10-04T04:45:22.733Z,20.40
2022-10-04T04:47:52.876Z,16.77
2022-10-04T04:50:35.771Z,21.17
2022-10-04T04:53:30.065Z,17.55
2022-10-04T04:56:10.183Z,20.13
2022-10-04T04:58:43.421Z,22.67
2022-10-04T05:01:42.283Z,18.50
2022-10-04T05:04:09.764Z,16.05
2022-10-04T05:06:38.826Z,16.70
2022-10-04T05:09:21.145Z,14.93
2022-10-04T05:11:51.125Z,16.65
2022-10-04T05:14:19.654Z,17.83
2022-10-04T05:16:56.143Z,20.55
2022-10-04T05:19:28.515Z,24.73
2022-10-04T05:21:58.931Z,19.90
2022-10-04T05:24:31.797Z,18.67
2022-10-04T05:27:05.979Z,20.58
2022-10-04T05:29:39.596Z,20.02
2022-10-04T05:32:24.057Z,18.35
2022-10-04T05:34:52.986Z,22.85
2022-10-04T05:37:32.618Z,20.27
2022-10-04T05:40:15.072Z,18.13
2022-10-04T05:42:46.771Z,21.80
2022-10-04T05:45:40.271Z,21.63
2022-10-04T05:48:09.089Z,21.88
2022-10-04T05:50:42.478Z,17.60
2022-10-04T05:53:33.494Z,18.20
2022-10-04T05:56:34.943Z,22.65
2022-10-04T05:59:30.176Z,19.13
2022-10-04T06:02:22.700Z,22.00
2022-10-04T06:05:01.826Z,17.88
2022-10-04T06:07:30.158Z,18.52
2022-10-04T06:10:41.929Z,22.13
2022-10-04T06:13:39.511Z,17.80
2022-10-04T06:16:15.460Z,22.13
2022-10-04T06:19:03.657Z,17.55
2022-10-04T06:21:49.737Z,18.52
2022-10-04T06:24:26.168Z,17.88
2022-10-04T06:27:12.017Z,21.65
2022-10-04T06:29:45.797Z,18.80
2022-10-04T06:32:32.981Z,20.15
2022-10-04T06:35:12.229Z,19.95
2022-10-04T06:38:01.329Z,22.20
2022-10-04T06:40:44.880Z,19.13
2022-10-04T06:46:03.681Z,20.77
2022-10-04T06:48:36.647Z,23.33
2022-10-04T06:51:12.817Z,20.70
2022-10-04T06:53:43.123Z,17.70
2022-10-04T06:56:38.313Z,21.15
2022-10-04T06:59:34.255Z,19.25
2022-10-04T07:02:12.387Z,21.48
2022-10-04T07:05:13.419Z,17.00
2022-10-04T07:07:47.546Z,17.55
2022-10-04T07:10:25.811Z,19.58
2022-10-04T07:13:28.311Z,17.35
2022-10-04T07:15:59.641Z,22.77
2022-10-04T07:18:37.214Z,21.27
2022-10-04T07:21:15.619Z,16.02
2022-10-04T07:23:57.043Z,16.30
2022-10-04T07:26:39.260Z,17.55
2022-10-04T07:29:26.012Z,17.13
2022-10-04T07:32:08.428Z,13.35
2022-10-04T07:34:43.269Z,17.33
2022-10-04T07:37:12.989Z,12.93
2022-10-04T07:39:50.533Z,12.80
2022-10-04T07:42:26.624Z,13.13
2022-10-04T07:45:21.892Z,12.45
2022-10-04T07:47:49.927Z,14.25
2022-10-04T07:50:24.924Z,13.63
2022-10-04T07:53:09.622Z,13.25
2022-10-04T07:56:13.813Z,12.82
2022-10-04T07:59:10.204Z,14.90
2022-10-04T08:01:48.589Z,14.90
2022-10-04T08:04:35.135Z,11.55
2022-10-04T08:07:11.119Z,11.15
2022-10-04T08:10:35.528Z,9.65
2022-10-04T08:13:38.947Z,8.90
2022-10-04T08:16:35.632Z,10.60
2022-10-04T08:19:30.260Z,8.98
2022-10-04T08:22:05.915Z,9.10
2022-10-04T08:24:54.757Z,11.60
2022-10-04T08:27:35.389Z,9.30
2022-10-04T08:30:17.579Z,8.30
2022-10-04T08:33:16.976Z,8.90
2022-10-04T08:36:17.295Z,8.80
2022-10-04T08:38:59.341Z,8.55
2022-10-04T08:41:29.608Z,7.72
2022-10-04T08:44:29.190Z,10.27
2022-10-04T08:47:22.229Z,6.70
2022-10-04T08:50:21.048Z,7.72
2022-10-04T08:53:13.625Z,7.55
2022-10-04T08:56:09.313Z,9.35
2022-10-04T08:59:32.272Z,8.98
2022-10-04T09:02:23.417Z,7.60
2022-10-04T09:04:59.352Z,7.65
2022-10-04T09:08:05.362Z,6.38
2022-10-04T09:10:37.104Z,7.22
2022-10-04T09:13:43.203Z,7.15
2022-10-04T09:16:39.881Z,7.00
2022-10-04T09:19:22.025Z,5.70
2022-10-04T09:22:28.808Z,9.65
2022-10-04T09:25:21.214Z,7.78
2022-10-04T09:27:55.414Z,9.85
2022-10-04T09:30:33.148Z,8.23
2022-10-04T09:33:21.456Z,6.35
2022-10-04T09:35:54.928Z,6.93
2022-10-04T09:38:57.708Z,7.57
2022-10-04T09:41:36.179Z,8.10
2022-10-04T09:44:46.089Z,9.48
2022-10-04T09:47:31.966Z,8.65
2022-10-04T09:50:18.869Z,7.50
2022-10-04T09:53:13.456Z,5.57
2022-10-04T09:56:13.924Z,6.68
2022-10-04T09:59:08.717Z,6.85
2022-10-04T10:02:10.069Z,7.13
2022-10-04T10:05:05.152Z,7.35
2022-10-04T10:08:00.364Z,9.90
2022-10-04T10:11:19.454Z,5.55
2022-10-04T10:14:16.274Z,7.57
2022-10-04T10:16:44.025Z,11.55
2022-10-04T10:19:30.402Z,7.20
2022-10-04T10:22:34.211Z,7.60
2022-10-04T10:25:10.416Z,6.82
2022-10-04T10:27:59.103Z,5.25
2022-10-04T10:30:45.167Z,3.78
2022-10-04T10:33:38.054Z,6.75
2022-10-04T10:36:34.293Z,4.70
2022-10-04T10:39:25.837Z,5.15
2022-10-04T10:41:53.099Z,8.18
2022-10-04T10:44:22.756Z,4.53
2022-10-04T10:47:08.427Z,5.70
2022-10-04T10:49:57.724Z,5.35
2022-10-04T10:52:39.760Z,6.13
2022-10-04T10:55:26.921Z,6.97
2022-10-04T10:58:22.836Z,4.80
2022-10-04T11:00:53.141Z,5.25
2022-10-04T11:03:41.984Z,2.75
2022-10-04T11:06:21.251Z,3.47
2022-10-04T11:09:27.039Z,5.28
2022-10-04T11:12:20.461Z,4.53
2022-10-04T11:15:21.168Z,5.88
2022-10-04T11:18:26.417Z,3.83
2022-10-04T11:21:12.129Z,2.13
2022-10-04T11:24:16.992Z,3.35
2022-10-04T11:26:56.952Z,5.15
2022-10-04T11:30:02.777Z,4.28
2022-10-04T11:32:51.123Z,4.63
2022-10-04T11:36:03.556Z,3.83
2022-10-04T11:39:03.431Z,4.13
2022-10-04T11:41:42.915Z,4.28
2022-10-04T11:44:18.837Z,3.97
2022-10-04T11:47:08.075Z,6.18
2022-10-04T11:49:47.448Z,5.93
2022-10-04T11:52:20.509Z,5.20
2022-10-04T11:57:31.353Z,4.10
2022-10-04T12:00:10.633Z,6.35
2022-10-04T12:03:22.379Z,5.90
2022-10-04T12:06:35.709Z,5.10
2022-10-04T12:09:20.827Z,4.60
2022-10-04T12:12:37.981Z,5.90
2022-10-04T12:15:42.869Z,3.92
2022-10-04T12:18:30.443Z,6.90
2022-10-04T12:21:35.975Z,6.03
2022-10-04T12:24:24.893Z,4.93
2022-10-04T12:27:15.544Z,3.78
2022-10-04T12:30:20.840Z,3.70
2022-10-04T12:32:57.929Z,5.18
2022-10-04T12:35:47.843Z,5.20
2022-10-04T12:38:37.337Z,4.95
2022-10-04T12:41:24.825Z,5.90
2022-10-04T12:44:07.890Z,4.78
2022-10-04T12:46:54.307Z,5.72
2022-10-04T12:49:45.792Z,4.97
2022-10-04T12:52:24.634Z,5.10
2022-10-04T12:55:36.492Z,6.82
2022-10-04T12:58:14.967Z,6.03
2022-10-04T13:00:45.681Z,5.50
2022-10-04T13:03:48.156Z,8.35
2022-10-04T13:06:30.634Z,6.32
2022-10-04T13:09:13.215Z,5.03
2022-10-04T13:12:04.110Z,6.30
2022-10-04T13:14:40.181Z,5.20
2022-10-04T13:17:32.911Z,5.85
2022-10-04T13:20:36.008Z,6.22
2022-10-04T13:23:27.640Z,8.35
2022-10-04T13:26:04.424Z,4.85
2022-10-04T13:28:51.309Z,6.43
2022-10-04T13:31:32.789Z,6.50
2022-10-04T13:34:13.440Z,8.18
2022-10-04T13:36:56.892Z,7.85
2022-10-04T13:42:12.462Z,6.43
2022-10-04T13:44:47.479Z,6.38
2022-10-04T13:47:29.474Z,6.65
2022-10-04T13:50:19.856Z,7.97
2022-10-04T13:53:27.712Z,9.48
2022-10-04T13:56:26.238Z,8.32
2022-10-04T13:59:06.767Z,6.40
2022-10-04T14:01:48.979Z,6.75
2022-10-04T14:04:54.519Z,5.40
2022-10-04T14:07:43.758Z,7.88
2022-10-04T14:10:36.897Z,7.78
2022-10-04T14:13:07.013Z,7.15
2022-10-04T14:15:54.813Z,8.10
2022-10-04T14:18:41.147Z,8.20
2022-10-04T14:21:48.537Z,7.53
2022-10-04T14:24:53.755Z,7.93
2022-10-04T14:27:27.292Z,8.00
2022-10-04T14:30:23.199Z,13.32
2022-10-04T14:33:02.440Z,10.88
2022-10-04T14:36:01.367Z,6.65
2022-10-04T14:38:47.611Z,9.07
2022-10-04T14:41:33.828Z,7.93
2022-10-04T14:44:26.024Z,8.48
2022-10-04T14:47:09.543Z,7.80
2022-10-04T14:50:02.254Z,8.75
2022-10-04T14:52:44.971Z,7.00
2022-10-04T14:55:35.587Z,6.77
2022-10-04T14:58:31.185Z,9.52
2022-10-04T15:01:33.911Z,8.07
2022-10-04T15:04:35.293Z,8.88
2022-10-04T15:07:49.919Z,8.80
2022-10-04T15:10:27.703Z,7.60
2022-10-04T15:13:25.909Z,7.88
2022-10-04T15:15:54.300Z,6.97
2022-10-04T15:18:33.316Z,9.25
2022-10-04T15:21:02.645Z,8.73
2022-10-04T15:23:30.513Z,7.80
2022-10-04T15:26:08.229Z,7.70
2022-10-04T15:28:50.579Z,6.88
2022-10-04T15:31:35.032Z,7.15
2022-10-04T15:34:33.448Z,6.10
2022-10-04T15:37:25.399Z,6.85
2022-10-04T15:39:58.265Z,8.35
2022-10-04T15:42:29.809Z,9.43
2022-10-04T15:45:03.133Z,10.00
2022-10-04T15:47:53.345Z,8.93
2022-10-04T15:50:28.201Z,8.65
2022-10-04T15:53:19.812Z,6.95
2022-10-04T15:55:59.355Z,7.75
2022-10-04T15:58:53.244Z,7.07
2022-10-04T16:01:26.628Z,9.40
2022-10-04T16:04:25.388Z,8.20
2022-10-04T16:06:59.797Z,6.80
2022-10-04T16:09:48.379Z,10.52
2022-10-04T16:12:33.138Z,8.63
2022-10-04T16:15:01.343Z,10.40
2022-10-04T16:17:44.046Z,8.48
2022-10-04T16:20:16.915Z,11.33
2022-10-04T16:23:24.070Z,12.23
2022-10-04T16:25:56.885Z,6.45
2022-10-04T16:28:36.688Z,8.23
2022-10-04T16:31:43.729Z,8.30
2022-10-04T16:34:13.913Z,10.40
2022-10-04T16:36:52.281Z,12.80
2022-10-04T16:39:56.353Z,13.00
2022-10-04T16:42:46.189Z,9.93
2022-10-04T16:45:32.916Z,7.90
2022-10-04T16:48:28.045Z,10.18
2022-10-04T16:51:17.734Z,11.63
2022-10-04T16:54:27.149Z,8.55
2022-10-04T16:56:56.360Z,11.02
2022-10-04T16:59:38.880Z,7.53
2022-10-04T17:02:15.248Z,7.83
2022-10-04T17:04:55.498Z,7.13
2022-10-04T17:07:33.983Z,12.05
2022-10-04T17:10:48.956Z,8.65
2022-10-04T17:13:31.131Z,9.18
2022-10-04T17:16:11.960Z,12.77
2022-10-04T17:19:12.972Z,8.63
2022-10-04T17:21:46.403Z,9.82
2022-10-04T17:24:51.941Z,7.00
2022-10-04T17:27:26.182Z,9.82
2022-10-04T17:29:58.756Z,8.32
2022-10-04T17:32:41.362Z,8.88
2022-10-04T17:35:46.557Z,7.63
2022-10-04T17:38:50.838Z,6.13
2022-10-04T17:41:41.377Z,8.43
2022-10-04T17:44:17.522Z,7.00
2022-10-04T17:47:04.328Z,7.45
2022-10-04T17:50:02.158Z,9.55
2022-10-04T17:52:58.713Z,10.90
2022-10-04T17:55:45.963Z,22.33
2022-10-04T17:58:39.804Z,7.65
2022-10-04T18:01:17.485Z,7.95
2022-10-04T18:03:52.410Z,11.60
2022-10-04T18:06:39.548Z,8.20
2022-10-04T18:09:20.525Z,9.43
2022-10-04T18:12:10.739Z,7.85
2022-10-04T18:14:52.336Z,8.63
2022-10-04T18:17:46.084Z,12.70
2022-10-04T18:23:12.261Z,6.95
2022-10-04T18:25:41.349Z,8.10
2022-10-04T18:28:08.703Z,9.52
2022-10-04T18:31:00.339Z,9.25
2022-10-04T18:33:48.546Z,9.40
2022-10-04T18:36:31.101Z,7.55
2022-10-04T18:39:14.646Z,11.07
2022-10-04T18:44:44.442Z,8.65
2022-10-04T18:47:36.384Z,8.07
2022-10-04T18:50:29.209Z,10.25
2022-10-04T18:53:15.430Z,8.20
2022-10-04T18:56:00.933Z,9.35
2022-10-04T18:59:02.627Z,11.13
2022-10-04T19:02:16.744Z,8.75
2022-10-04T19:04:49.126Z,14.02
2022-10-04T19:07:21.010Z,12.13
2022-10-04T19:10:01.110Z,9.25
2022-10-04T19:12:41.906Z,18.38
2022-10-04T19:15:43.275Z,11.00
2022-10-04T19:18:31.268Z,10.63
2022-10-04T19:21:17.566Z,11.88
2022-10-04T19:23:56.229Z,10.65
2022-10-04T19:27:20.051Z,10.77
2022-10-04T19:30:18.419Z,8.90
2022-10-04T19:32:56.788Z,25.77
2022-10-04T19:36:01.335Z,14.25
2022-10-04T19:38:34.486Z,10.10
2022-10-04T19:41:33.973Z,18.85
2022-10-04T19:44:07.382Z,11.60
2022-10-04T19:46:55.812Z,11.40
2022-10-04T19:49:53.139Z,61.28
2022-10-04T19:52:29.243Z,15.68
2022-10-04T19:55:04.188Z,13.80
2022-10-04T19:57:39.219Z,11.57
2022-10-04T20:00:14.447Z,13.23
2022-10-04T20:02:48.707Z,10.90
2022-10-04T20:05:25.278Z,12.57
2022-10-04T20:08:01.738Z,9.98
2022-10-04T20:10:37.281Z,11.18
2022-10-04T20:13:22.048Z,17.13
2022-10-04T20:15:52.153Z,12.98
2022-10-04T20:18:32.848Z,12.45
2022-10-04T20:21:01.610Z,10.52
2022-10-04T20:23:38.840Z,9.35
2022-10-04T20:26:10.507Z,11.90
2022-10-04T20:28:42.772Z,12.35
2022-10-04T20:31:25.838Z,13.63
2022-10-04T20:33:53.872Z,13.73
2022-10-04T20:36:21.664Z,13.48
2022-10-04T20:39:01.319Z,11.57
2022-10-04T20:41:28.850Z,11.23
2022-10-04T20:44:01.963Z,11.73
2022-10-04T20:49:15.654Z,11.55
2022-10-04T20:51:49.967Z,12.48
2022-10-04T20:54:18.825Z,10.40
2022-10-04T20:56:51.402Z,11.77
2022-10-04T20:59:18.986Z,12.25
2022-10-04T21:02:03.410Z,13.70
2022-10-04T21:04:32.985Z,12.13
2022-10-04T21:07:08.599Z,13.25
2022-10-04T21:09:37.068Z,12.73
2022-10-04T21:12:06.091Z,11.55
2022-10-04T21:14:35.820Z,14.60
2022-10-04T21:17:30.338Z,12.68
2022-10-04T21:19:57.822Z,11.15
2022-10-04T21:22:28.920Z,14.90
2022-10-04T21:24:58.789Z,13.55
2022-10-04T21:27:29.013Z,13.15
2022-10-04T21:29:57.256Z,13.15
2022-10-04T21:32:25.812Z,11.98
2022-10-04T21:34:54.357Z,12.73
2022-10-04T21:37:22.357Z,13.48
2022-10-04T21:39:49.739Z,11.20
2022-10-04T21:42:17.101Z,11.90
2022-10-04T21:44:44.657Z,12.48
2022-10-04T21:47:12.160Z,12.57
2022-10-04T21:49:39.664Z,11.27
2022-10-04T21:52:07.730Z,13.43
2022-10-04T21:54:35.342Z,14.18
2022-10-04T21:57:02.686Z,18.35
2022-10-04T21:59:30.038Z,15.43
2022-10-04T22:01:57.505Z,11.77
2022-10-04T22:04:24.811Z,13.63
2022-10-04T22:06:52.099Z,15.18
2022-10-04T22:09:19.439Z,12.95
2022-10-04T22:11:46.893Z,17.38
2022-10-04T22:14:14.151Z,12.25
2022-10-04T22:16:41.543Z,14.40
2022-10-04T22:19:09.278Z,14.65
2022-10-04T22:21:36.812Z,14.30
2022-10-04T22:24:10.637Z,12.20
2022-10-04T22:26:38.024Z,13.20
2022-10-04T22:29:13.458Z,13.50
2022-10-04T22:31:44.173Z,14.73
2022-10-04T22:34:19.170Z,13.23
2022-10-04T22:36:48.832Z,12.63
2022-10-04T22:39:18.905Z,12.70
2022-10-04T22:41:49.020Z,13.60
2022-10-04T22:44:20.354Z,11.63
2022-10-04T22:46:57.734Z,13.07
2022-10-04T22:49:33.988Z,11.70
2022-10-04T22:52:09.963Z,13.75
2022-10-04T22:54:38.906Z,14.30
2022-10-04T22:57:06.380Z,16.33
2022-10-04T22:59:48.733Z,14.77
2022-10-04T23:02:26.649Z,14.10
2022-10-04T23:04:57.045Z,13.00
2022-10-04T23:07:24.702Z,12.23
2022-10-04T23:09:52.065Z,16.67
2022-10-04T23:12:19.436Z,18.48
2022-10-04T23:14:46.662Z,19.80
2022-10-04T23:17:23.032Z,25.40
2022-10-04T23:20:06.825Z,19.00
2022-10-04T23:22:34.265Z,22.08
2022-10-04T23:25:02.142Z,18.48
2022-10-04T23:27:29.694Z,20.02
2022-10-04T23:30:05.632Z,20.77
2022-10-04T23:32:33.160Z,16.40
2022-10-04T23:35:03.492Z,12.93
2022-10-04T23:37:32.290Z,16.50
2022-10-04T23:39:59.555Z,14.80
2022-10-04T23:42:31.889Z,15.55
2022-10-04T23:45:00.441Z,14.95
2022-10-04T23:47:32.870Z,15.32
2022-10-04T23:50:00.906Z,24.30
2022-10-04T23:52:36.254Z,12.48
2022-10-04T23:55:16.111Z,13.23
2022-10-04T23:57:43.429Z,14.15
